sensor_id;sensor_type;location;lat;lon;timestamp;temperature;humidity
4356;DHT22;64374;51.482;7.408;2023-07-08T00:01:38;25.70;94.00
4356;DHT22;64374;51.482;7.408;2023-07-08T00:04:06;25.70;93.80
4356;DHT22;64374;51.482;7.408;2023-07-08T00:06:38;25.60;94.20
4356;DHT22;64374;51.482;7.408;2023-07-08T00:09:10;25.60;94.40
4356;DHT22;64374;51.482;7.408;2023-07-08T00:11:39;25.80;94.60
4356;DHT22;64374;51.482;7.408;2023-07-08T00:14:07;25.70;94.50
4356;DHT22;64374;51.482;7.408;2023-07-08T00:16:37;25.70;94.50
4356;DHT22;64374;51.482;7.408;2023-07-08T00:19:08;25.70;94.50
4356;DHT22;64374;51.482;7.408;2023-07-08T00:21:41;25.70;94.70
4356;DHT22;64374;51.482;7.408;2023-07-08T00:24:33;25.70;94.90
4356;DHT22;64374;51.482;7.408;2023-07-08T00:27:02;25.70;94.80
4356;DHT22;64374;51.482;7.408;2023-07-08T00:29:30;25.80;94.90
4356;DHT22;64374;51.482;7.408;2023-07-08T00:32:00;25.70;95.10
4356;DHT22;64374;51.482;7.408;2023-07-08T00:34:29;25.70;95.20
4356;DHT22;64374;51.482;7.408;2023-07-08T00:36:58;25.70;95.60
4356;DHT22;64374;51.482;7.408;2023-07-08T00:39:26;25.70;95.80
4356;DHT22;64374;51.482;7.408;2023-07-08T00:41:55;25.70;95.70
4356;DHT22;64374;51.482;7.408;2023-07-08T00:44:23;25.70;95.80
4356;DHT22;64374;51.482;7.408;2023-07-08T00:47:00;25.70;95.80
4356;DHT22;64374;51.482;7.408;2023-07-08T00:49:38;25.70;95.90
4356;DHT22;64374;51.482;7.408;2023-07-08T00:52:30;25.70;96.10
4356;DHT22;64374;51.482;7.408;2023-07-08T00:55:01;25.80;96.30
4356;DHT22;64374;51.482;7.408;2023-07-08T00:57:35;25.80;96.40
4356;DHT22;64374;51.482;7.408;2023-07-08T01:00:06;25.70;96.50
4356;DHT22;64374;51.482;7.408;2023-07-08T01:02:45;25.70;96.80
4356;DHT22;64374;51.482;7.408;2023-07-08T01:05:38;25.70;96.80
4356;DHT22;64374;51.482;7.408;2023-07-08T01:08:09;25.60;97.00
4356;DHT22;64374;51.482;7.408;2023-07-08T01:10:42;25.60;96.90
4356;DHT22;64374;51.482;7.408;2023-07-08T01:13:15;25.40;97.40
4356;DHT22;64374;51.482;7.408;2023-07-08T01:15:46;25.40;97.60
4356;DHT22;64374;51.482;7.408;2023-07-08T01:18:18;25.40;97.50
4356;DHT22;64374;51.482;7.408;2023-07-08T01:20:51;25.40;97.60
4356;DHT22;64374;51.482;7.408;2023-07-08T01:23:24;25.30;97.50
4356;DHT22;64374;51.482;7.408;2023-07-08T01:25:52;25.40;97.50
4356;DHT22;64374;51.482;7.408;2023-07-08T01:28:24;25.40;97.80
4356;DHT22;64374;51.482;7.408;2023-07-08T01:30:54;25.20;97.70
4356;DHT22;64374;51.482;7.408;2023-07-08T01:33:24;25.20;98.00
4356;DHT22;64374;51.482;7.408;2023-07-08T01:35:55;25.10;98.00
4356;DHT22;64374;51.482;7.408;2023-07-08T01:38:27;25.20;98.10
4356;DHT22;64374;51.482;7.408;2023-07-08T01:40:58;25.20;98.10
4356;DHT22;64374;51.482;7.408;2023-07-08T01:43:29;25.10;98.30
4356;DHT22;64374;51.482;7.408;2023-07-08T01:46:00;25.10;98.60
4356;DHT22;64374;51.482;7.408;2023-07-08T01:48:33;25.10;98.60
4356;DHT22;64374;51.482;7.408;2023-07-08T01:51:04;25.00;98.70
4356;DHT22;64374;51.482;7.408;2023-07-08T01:53:36;25.10;98.50
4356;DHT22;64374;51.482;7.408;2023-07-08T01:56:07;25.00;98.90
4356;DHT22;64374;51.482;7.408;2023-07-08T01:58:35;24.80;99.20
4356;DHT22;64374;51.482;7.408;2023-07-08T02:01:04;24.80;99.30
4356;DHT22;64374;51.482;7.408;2023-07-08T02:03:34;24.80;99.40
4356;DHT22;64374;51.482;7.408;2023-07-08T02:06:03;24.80;99.70
4356;DHT22;64374;51.482;7.408;2023-07-08T02:08:32;24.80;99.80
4356;DHT22;64374;51.482;7.408;2023-07-08T02:11:02;24.90;99.80
4356;DHT22;64374;51.482;7.408;2023-07-08T02:13:31;24.90;99.80
4356;DHT22;64374;51.482;7.408;2023-07-08T02:16:23;24.70;99.90
4356;DHT22;64374;51.482;7.408;2023-07-08T02:18:52;24.60;99.90
4356;DHT22;64374;51.482;7.408;2023-07-08T02:21:21;24.50;99.90
4356;DHT22;64374;51.482;7.408;2023-07-08T02:23:52;24.60;99.90
4356;DHT22;64374;51.482;7.408;2023-07-08T02:26:22;24.60;99.90
4356;DHT22;64374;51.482;7.408;2023-07-08T02:28:51;24.60;99.90
4356;DHT22;64374;51.482;7.408;2023-07-08T02:31:19;24.50;99.90
4356;DHT22;64374;51.482;7.408;2023-07-08T02:33:49;24.60;99.90
4356;DHT22;64374;51.482;7.408;2023-07-08T02:36:17;24.60;99.90
4356;DHT22;64374;51.482;7.408;2023-07-08T02:38:46;24.60;99.90
4356;DHT22;64374;51.482;7.408;2023-07-08T02:41:14;24.50;99.90
4356;DHT22;64374;51.482;7.408;2023-07-08T02:43:49;24.50;99.90
4356;DHT22;64374;51.482;7.408;2023-07-08T02:46:17;24.50;99.90
4356;DHT22;64374;51.482;7.408;2023-07-08T02:48:46;24.50;99.90
4356;DHT22;64374;51.482;7.408;2023-07-08T02:51:14;24.50;99.90
4356;DHT22;64374;51.482;7.408;2023-07-08T02:53:43;24.30;99.90
4356;DHT22;64374;51.482;7.408;2023-07-08T02:56:11;24.20;99.90
4356;DHT22;64374;51.482;7.408;2023-07-08T02:58:39;24.10;99.90
4356;DHT22;64374;51.482;7.408;2023-07-08T03:01:09;24.10;99.90
4356;DHT22;64374;51.482;7.408;2023-07-08T03:03:41;24.20;99.90
4356;DHT22;64374;51.482;7.408;2023-07-08T03:06:09;24.20;99.90
4356;DHT22;64374;51.482;7.408;2023-07-08T03:08:39;24.20;99.90
4356;DHT22;64374;51.482;7.408;2023-07-08T03:11:08;24.10;99.90
4356;DHT22;64374;51.482;7.408;2023-07-08T03:13:38;24.20;99.90
4356;DHT22;64374;51.482;7.408;2023-07-08T03:16:07;24.30;99.90
4356;DHT22;64374;51.482;7.408;2023-07-08T03:18:41;24.30;99.90
4356;DHT22;64374;51.482;7.408;2023-07-08T03:21:16;24.30;99.90
4356;DHT22;64374;51.482;7.408;2023-07-08T03:23:44;24.40;99.90
4356;DHT22;64374;51.482;7.408;2023-07-08T03:26:14;24.30;99.90
4356;DHT22;64374;51.482;7.408;2023-07-08T03:28:47;24.20;99.90
4356;DHT22;64374;51.482;7.408;2023-07-08T03:31:16;24.20;99.90
4356;DHT22;64374;51.482;7.408;2023-07-08T03:33:47;24.10;99.90
4356;DHT22;64374;51.482;7.408;2023-07-08T03:36:17;24.20;99.90
4356;DHT22;64374;51.482;7.408;2023-07-08T03:38:51;24.20;99.90
4356;DHT22;64374;51.482;7.408;2023-07-08T03:41:20;24.10;99.90
4356;DHT22;64374;51.482;7.408;2023-07-08T03:43:49;24.10;99.90
4356;DHT22;64374;51.482;7.408;2023-07-08T03:46:20;24.10;99.90
4356;DHT22;64374;51.482;7.408;2023-07-08T03:48:55;24.10;99.90
4356;DHT22;64374;51.482;7.408;2023-07-08T03:51:25;24.10;99.90
4356;DHT22;64374;51.482;7.408;2023-07-08T03:53:55;24.10;99.90
4356;DHT22;64374;51.482;7.408;2023-07-08T03:56:24;24.10;99.90
4356;DHT22;64374;51.482;7.408;2023-07-08T03:58:54;24.10;99.90
4356;DHT22;64374;51.482;7.408;2023-07-08T04:01:24;24.20;99.90
4356;DHT22;64374;51.482;7.408;2023-07-08T04:03:58;24.20;99.90
4356;DHT22;64374;51.482;7.408;2023-07-08T04:06:35;24.20;99.90
4356;DHT22;64374;51.482;7.408;2023-07-08T04:09:03;24.20;99.90
4356;DHT22;64374;51.482;7.408;2023-07-08T04:11:32;24.20;99.90
4356;DHT22;64374;51.482;7.408;2023-07-08T04:14:01;24.10;99.90
4356;DHT22;64374;51.482;7.408;2023-07-08T04:16:33;24.20;99.90
4356;DHT22;64374;51.482;7.408;2023-07-08T04:19:05;24.20;99.90
4356;DHT22;64374;51.482;7.408;2023-07-08T04:21:43;24.20;99.90
4356;DHT22;64374;51.482;7.408;2023-07-08T04:24:12;24.20;99.90
4356;DHT22;64374;51.482;7.408;2023-07-08T04:26:44;24.20;99.90
4356;DHT22;64374;51.482;7.408;2023-07-08T04:29:16;24.00;99.90
4356;DHT22;64374;51.482;7.408;2023-07-08T04:31:44;24.00;99.90
4356;DHT22;64374;51.482;7.408;2023-07-08T04:34:15;24.10;99.90
4356;DHT22;64374;51.482;7.408;2023-07-08T04:36:44;24.10;99.90
4356;DHT22;64374;51.482;7.408;2023-07-08T04:39:13;24.10;99.90
4356;DHT22;64374;51.482;7.408;2023-07-08T04:41:42;24.10;99.90
4356;DHT22;64374;51.482;7.408;2023-07-08T04:44:12;24.10;99.90
4356;DHT22;64374;51.482;7.408;2023-07-08T04:46:43;24.20;99.90
4356;DHT22;64374;51.482;7.408;2023-07-08T04:49:14;24.20;99.90
4356;DHT22;64374;51.482;7.408;2023-07-08T04:51:43;24.10;99.90
4356;DHT22;64374;51.482;7.408;2023-07-08T04:54:11;24.10;99.90
4356;DHT22;64374;51.482;7.408;2023-07-08T04:56:41;24.20;99.90
4356;DHT22;64374;51.482;7.408;2023-07-08T04:59:12;24.20;99.90
4356;DHT22;64374;51.482;7.408;2023-07-08T05:01:41;24.10;99.90
4356;DHT22;64374;51.482;7.408;2023-07-08T05:04:17;24.10;99.90
4356;DHT22;64374;51.482;7.408;2023-07-08T05:06:46;24.00;99.90
4356;DHT22;64374;51.482;7.408;2023-07-08T05:09:16;24.00;99.90
4356;DHT22;64374;51.482;7.408;2023-07-08T05:11:44;24.00;99.90
4356;DHT22;64374;51.482;7.408;2023-07-08T05:14:13;24.10;99.90
4356;DHT22;64374;51.482;7.408;2023-07-08T05:16:42;24.10;99.90
4356;DHT22;64374;51.482;7.408;2023-07-08T05:19:10;24.10;99.90
4356;DHT22;64374;51.482;7.408;2023-07-08T05:21:41;24.10;99.90
4356;DHT22;64374;51.482;7.408;2023-07-08T05:24:13;24.10;99.90
4356;DHT22;64374;51.482;7.408;2023-07-08T05:26:43;24.20;99.90
4356;DHT22;64374;51.482;7.408;2023-07-08T05:29:11;24.20;99.90
4356;DHT22;64374;51.482;7.408;2023-07-08T05:31:40;24.10;99.90
4356;DHT22;64374;51.482;7.408;2023-07-08T05:34:14;24.20;99.90
4356;DHT22;64374;51.482;7.408;2023-07-08T05:36:44;24.20;99.90
4356;DHT22;64374;51.482;7.408;2023-07-08T05:39:14;24.30;99.90
4356;DHT22;64374;51.482;7.408;2023-07-08T05:41:42;24.40;99.90
4356;DHT22;64374;51.482;7.408;2023-07-08T05:44:11;24.50;99.90
4356;DHT22;64374;51.482;7.408;2023-07-08T05:46:39;24.50;99.90
4356;DHT22;64374;51.482;7.408;2023-07-08T05:49:08;24.60;99.90
4356;DHT22;64374;51.482;7.408;2023-07-08T05:51:36;24.60;99.90
4356;DHT22;64374;51.482;7.408;2023-07-08T05:54:06;24.60;99.90
4356;DHT22;64374;51.482;7.408;2023-07-08T05:56:35;24.70;99.90
4356;DHT22;64374;51.482;7.408;2023-07-08T05:59:04;24.70;99.90
4356;DHT22;64374;51.482;7.408;2023-07-08T06:01:33;24.70;99.90
4356;DHT22;64374;51.482;7.408;2023-07-08T06:04:02;24.80;99.90
4356;DHT22;64374;51.482;7.408;2023-07-08T06:06:31;24.90;99.90
4356;DHT22;64374;51.482;7.408;2023-07-08T06:08:59;25.00;99.90
4356;DHT22;64374;51.482;7.408;2023-07-08T06:11:29;25.00;99.90
4356;DHT22;64374;51.482;7.408;2023-07-08T06:14:00;25.10;99.90
4356;DHT22;64374;51.482;7.408;2023-07-08T06:16:29;25.20;99.90
4356;DHT22;64374;51.482;7.408;2023-07-08T06:19:08;25.30;99.90
4356;DHT22;64374;51.482;7.408;2023-07-08T06:21:37;25.30;99.90
4356;DHT22;64374;51.482;7.408;2023-07-08T06:24:05;25.30;99.90
4356;DHT22;64374;51.482;7.408;2023-07-08T06:26:35;25.40;99.90
4356;DHT22;64374;51.482;7.408;2023-07-08T06:29:04;25.40;99.90
4356;DHT22;64374;51.482;7.408;2023-07-08T06:31:33;25.50;99.90
4356;DHT22;64374;51.482;7.408;2023-07-08T06:34:01;25.60;99.90
4356;DHT22;64374;51.482;7.408;2023-07-08T06:36:31;25.60;99.90
4356;DHT22;64374;51.482;7.408;2023-07-08T06:38:59;25.70;99.90
4356;DHT22;64374;51.482;7.408;2023-07-08T06:41:27;25.70;99.90
4356;DHT22;64374;51.482;7.408;2023-07-08T06:43:57;25.70;99.90
4356;DHT22;64374;51.482;7.408;2023-07-08T06:46:30;25.70;99.90
4356;DHT22;64374;51.482;7.408;2023-07-08T06:48:59;25.80;99.90
4356;DHT22;64374;51.482;7.408;2023-07-08T06:51:29;25.80;99.90
4356;DHT22;64374;51.482;7.408;2023-07-08T06:53:57;25.90;99.90
4356;DHT22;64374;51.482;7.408;2023-07-08T06:56:26;25.90;99.90
4356;DHT22;64374;51.482;7.408;2023-07-08T06:58:56;25.90;99.90
4356;DHT22;64374;51.482;7.408;2023-07-08T07:01:25;26.00;99.90
4356;DHT22;64374;51.482;7.408;2023-07-08T07:03:53;26.10;99.90
4356;DHT22;64374;51.482;7.408;2023-07-08T07:06:22;26.00;99.90
4356;DHT22;64374;51.482;7.408;2023-07-08T07:08:51;26.10;99.90
4356;DHT22;64374;51.482;7.408;2023-07-08T07:11:19;26.00;99.90
4356;DHT22;64374;51.482;7.408;2023-07-08T07:13:48;26.10;99.90
4356;DHT22;64374;51.482;7.408;2023-07-08T07:16:19;26.20;99.90
4356;DHT22;64374;51.482;7.408;2023-07-08T07:18:48;26.30;99.90
4356;DHT22;64374;51.482;7.408;2023-07-08T07:21:17;26.30;99.90
4356;DHT22;64374;51.482;7.408;2023-07-08T07:23:45;26.50;99.90
4356;DHT22;64374;51.482;7.408;2023-07-08T07:26:13;26.60;99.90
4356;DHT22;64374;51.482;7.408;2023-07-08T07:28:42;26.70;99.90
4356;DHT22;64374;51.482;7.408;2023-07-08T07:31:10;26.60;99.90
4356;DHT22;64374;51.482;7.408;2023-07-08T07:33:40;26.60;99.90
4356;DHT22;64374;51.482;7.408;2023-07-08T07:36:08;26.70;99.90
4356;DHT22;64374;51.482;7.408;2023-07-08T07:38:36;26.70;99.90
4356;DHT22;64374;51.482;7.408;2023-07-08T07:41:04;26.80;99.90
4356;DHT22;64374;51.482;7.408;2023-07-08T07:43:34;26.70;99.90
4356;DHT22;64374;51.482;7.408;2023-07-08T07:46:02;26.80;99.90
4356;DHT22;64374;51.482;7.408;2023-07-08T07:48:32;26.80;99.90
4356;DHT22;64374;51.482;7.408;2023-07-08T07:51:04;26.90;99.90
4356;DHT22;64374;51.482;7.408;2023-07-08T07:53:33;27.10;99.90
4356;DHT22;64374;51.482;7.408;2023-07-08T07:56:01;27.00;99.90
4356;DHT22;64374;51.482;7.408;2023-07-08T07:58:30;27.10;99.90
4356;DHT22;64374;51.482;7.408;2023-07-08T08:00:59;27.20;99.90
4356;DHT22;64374;51.482;7.408;2023-07-08T08:03:28;27.20;99.90
4356;DHT22;64374;51.482;7.408;2023-07-08T08:05:58;27.20;99.90
4356;DHT22;64374;51.482;7.408;2023-07-08T08:08:30;27.30;99.90
4356;DHT22;64374;51.482;7.408;2023-07-08T08:11:00;27.40;99.90
4356;DHT22;64374;51.482;7.408;2023-07-08T08:13:28;27.40;99.90
4356;DHT22;64374;51.482;7.408;2023-07-08T08:15:57;27.50;99.90
4356;DHT22;64374;51.482;7.408;2023-07-08T08:18:26;27.70;99.90
4356;DHT22;64374;51.482;7.408;2023-07-08T08:20:54;27.80;99.90
4356;DHT22;64374;51.482;7.408;2023-07-08T08:23:23;27.90;99.90
4356;DHT22;64374;51.482;7.408;2023-07-08T08:25:53;27.90;99.90
4356;DHT22;64374;51.482;7.408;2023-07-08T08:28:21;28.10;99.90
4356;DHT22;64374;51.482;7.408;2023-07-08T08:30:49;28.10;99.90
4356;DHT22;64374;51.482;7.408;2023-07-08T08:33:18;28.20;99.90
4356;DHT22;64374;51.482;7.408;2023-07-08T08:35:47;28.40;99.90
4356;DHT22;64374;51.482;7.408;2023-07-08T08:38:15;28.40;99.90
4356;DHT22;64374;51.482;7.408;2023-07-08T08:40:44;28.40;99.90
4356;DHT22;64374;51.482;7.408;2023-07-08T08:43:15;28.30;99.90
4356;DHT22;64374;51.482;7.408;2023-07-08T08:45:45;28.50;99.90
4356;DHT22;64374;51.482;7.408;2023-07-08T08:48:17;28.60;99.90
4356;DHT22;64374;51.482;7.408;2023-07-08T08:50:50;28.40;99.90
4356;DHT22;64374;51.482;7.408;2023-07-08T08:53:20;28.70;99.90
4356;DHT22;64374;51.482;7.408;2023-07-08T08:55:50;28.80;99.90
4356;DHT22;64374;51.482;7.408;2023-07-08T08:58:25;28.90;99.90
4356;DHT22;64374;51.482;7.408;2023-07-08T09:00:57;29.00;99.90
4356;DHT22;64374;51.482;7.408;2023-07-08T09:03:33;28.80;99.90
4356;DHT22;64374;51.482;7.408;2023-07-08T09:06:09;28.90;99.90
4356;DHT22;64374;51.482;7.408;2023-07-08T09:08:39;29.20;99.90
4356;DHT22;64374;51.482;7.408;2023-07-08T09:11:10;29.30;99.90
4356;DHT22;64374;51.482;7.408;2023-07-08T09:13:42;29.40;99.20
4356;DHT22;64374;51.482;7.408;2023-07-08T09:16:15;29.40;98.70
4356;DHT22;64374;51.482;7.408;2023-07-08T09:18:53;29.60;98.50
4356;DHT22;64374;51.482;7.408;2023-07-08T09:21:30;29.60;96.90
4356;DHT22;64374;51.482;7.408;2023-07-08T09:24:06;29.30;97.00
4356;DHT22;64374;51.482;7.408;2023-07-08T09:26:38;29.40;97.80
4356;DHT22;64374;51.482;7.408;2023-07-08T09:29:10;29.40;96.80
4356;DHT22;64374;51.482;7.408;2023-07-08T09:32:14;29.60;96.40
4356;DHT22;64374;51.482;7.408;2023-07-08T09:34:46;29.80;95.90
4356;DHT22;64374;51.482;7.408;2023-07-08T09:37:25;30.10;94.90
4356;DHT22;64374;51.482;7.408;2023-07-08T09:39:55;30.20;95.30
4356;DHT22;64374;51.482;7.408;2023-07-08T09:42:27;30.10;91.40
4356;DHT22;64374;51.482;7.408;2023-07-08T09:44:59;29.90;91.80
4356;DHT22;64374;51.482;7.408;2023-07-08T09:47:34;29.80;91.60
4356;DHT22;64374;51.482;7.408;2023-07-08T09:50:06;30.10;91.40
4356;DHT22;64374;51.482;7.408;2023-07-08T09:52:43;30.00;90.90
4356;DHT22;64374;51.482;7.408;2023-07-08T09:55:12;30.00;90.00
4356;DHT22;64374;51.482;7.408;2023-07-08T09:57:44;30.00;89.40
4356;DHT22;64374;51.482;7.408;2023-07-08T10:00:25;30.20;91.30
4356;DHT22;64374;51.482;7.408;2023-07-08T10:02:59;30.30;89.60
4356;DHT22;64374;51.482;7.408;2023-07-08T10:05:34;30.50;88.30
4356;DHT22;64374;51.482;7.408;2023-07-08T10:08:16;30.60;86.70
4356;DHT22;64374;51.482;7.408;2023-07-08T10:10:47;30.80;86.90
4356;DHT22;64374;51.482;7.408;2023-07-08T10:13:21;30.90;86.70
4356;DHT22;64374;51.482;7.408;2023-07-08T10:15:56;30.90;86.80
4356;DHT22;64374;51.482;7.408;2023-07-08T10:18:28;31.00;87.00
4356;DHT22;64374;51.482;7.408;2023-07-08T10:21:14;31.00;85.80
4356;DHT22;64374;51.482;7.408;2023-07-08T10:23:54;31.10;86.10
4356;DHT22;64374;51.482;7.408;2023-07-08T10:26:26;31.10;86.90
4356;DHT22;64374;51.482;7.408;2023-07-08T10:29:06;31.20;85.20
4356;DHT22;64374;51.482;7.408;2023-07-08T10:31:51;31.20;83.80
4356;DHT22;64374;51.482;7.408;2023-07-08T10:34:39;30.70;80.60
4356;DHT22;64374;51.482;7.408;2023-07-08T10:37:21;30.50;81.40
4356;DHT22;64374;51.482;7.408;2023-07-08T10:39:59;30.70;82.20
4356;DHT22;64374;51.482;7.408;2023-07-08T10:42:52;30.80;81.80
4356;DHT22;64374;51.482;7.408;2023-07-08T10:45:26;30.80;81.40
4356;DHT22;64374;51.482;7.408;2023-07-08T10:48:11;31.00;81.20
4356;DHT22;64374;51.482;7.408;2023-07-08T10:50:56;31.20;84.60
4356;DHT22;64374;51.482;7.408;2023-07-08T10:53:41;31.40;84.80
4356;DHT22;64374;51.482;7.408;2023-07-08T10:56:20;31.50;83.80
4356;DHT22;64374;51.482;7.408;2023-07-08T10:59:13;31.60;83.50
4356;DHT22;64374;51.482;7.408;2023-07-08T11:04:53;31.70;83.50
4356;DHT22;64374;51.482;7.408;2023-07-08T11:07:34;31.90;83.50
4356;DHT22;64374;51.482;7.408;2023-07-08T11:10:12;32.00;83.00
4356;DHT22;64374;51.482;7.408;2023-07-08T11:12:45;32.00;79.50
4356;DHT22;64374;51.482;7.408;2023-07-08T11:15:21;31.90;78.90
4356;DHT22;64374;51.482;7.408;2023-07-08T11:17:56;31.60;76.60
4356;DHT22;64374;51.482;7.408;2023-07-08T11:20:36;31.40;76.80
4356;DHT22;64374;51.482;7.408;2023-07-08T11:23:16;31.60;80.00
4356;DHT22;64374;51.482;7.408;2023-07-08T11:25:48;31.90;79.40
4356;DHT22;64374;51.482;7.408;2023-07-08T11:28:21;32.00;77.90
4356;DHT22;64374;51.482;7.408;2023-07-08T11:30:52;32.00;77.00
4356;DHT22;64374;51.482;7.408;2023-07-08T11:33:24;32.20;76.00
4356;DHT22;64374;51.482;7.408;2023-07-08T11:36:02;32.30;75.30
4356;DHT22;64374;51.482;7.408;2023-07-08T11:38:33;32.40;75.40
4356;DHT22;64374;51.482;7.408;2023-07-08T11:41:13;32.40;73.50
4356;DHT22;64374;51.482;7.408;2023-07-08T11:43:46;32.50;74.70
4356;DHT22;64374;51.482;7.408;2023-07-08T11:46:19;32.40;73.20
4356;DHT22;64374;51.482;7.408;2023-07-08T11:48:51;32.40;75.60
4356;DHT22;64374;51.482;7.408;2023-07-08T11:51:24;32.40;75.30
4356;DHT22;64374;51.482;7.408;2023-07-08T11:53:59;32.50;76.00
4356;DHT22;64374;51.482;7.408;2023-07-08T11:56:28;32.60;77.10
4356;DHT22;64374;51.482;7.408;2023-07-08T11:59:17;32.90;76.70
4356;DHT22;64374;51.482;7.408;2023-07-08T12:01:51;33.00;74.10
4356;DHT22;64374;51.482;7.408;2023-07-08T12:04:26;33.00;74.40
4356;DHT22;64374;51.482;7.408;2023-07-08T12:07:14;33.20;74.30
4356;DHT22;64374;51.482;7.408;2023-07-08T12:09:50;33.20;74.30
4356;DHT22;64374;51.482;7.408;2023-07-08T12:12:31;33.20;76.50
4356;DHT22;64374;51.482;7.408;2023-07-08T12:15:09;33.10;72.50
4356;DHT22;64374;51.482;7.408;2023-07-08T12:17:40;33.20;72.40
4356;DHT22;64374;51.482;7.408;2023-07-08T12:20:17;33.40;73.50
4356;DHT22;64374;51.482;7.408;2023-07-08T12:22:47;33.60;69.50
4356;DHT22;64374;51.482;7.408;2023-07-08T12:25:18;33.60;70.50
4356;DHT22;64374;51.482;7.408;2023-07-08T12:27:47;33.70;69.60
4356;DHT22;64374;51.482;7.408;2023-07-08T12:30:16;33.70;70.30
4356;DHT22;64374;51.482;7.408;2023-07-08T12:32:45;33.70;68.70
4356;DHT22;64374;51.482;7.408;2023-07-08T12:35:21;33.70;69.20
4356;DHT22;64374;51.482;7.408;2023-07-08T12:37:54;33.90;66.90
4356;DHT22;64374;51.482;7.408;2023-07-08T12:40:28;33.90;68.70
4356;DHT22;64374;51.482;7.408;2023-07-08T12:42:58;33.90;66.20
4356;DHT22;64374;51.482;7.408;2023-07-08T12:45:32;33.60;64.20
4356;DHT22;64374;51.482;7.408;2023-07-08T12:48:21;33.40;65.10
4356;DHT22;64374;51.482;7.408;2023-07-08T12:50:49;33.40;66.40
4356;DHT22;64374;51.482;7.408;2023-07-08T12:53:20;33.60;67.40
4356;DHT22;64374;51.482;7.408;2023-07-08T12:55:52;33.70;65.80
4356;DHT22;64374;51.482;7.408;2023-07-08T12:58:29;33.70;65.50
4356;DHT22;64374;51.482;7.408;2023-07-08T13:01:01;33.70;64.40
4356;DHT22;64374;51.482;7.408;2023-07-08T13:03:35;33.80;64.40
4356;DHT22;64374;51.482;7.408;2023-07-08T13:06:07;34.00;65.30
4356;DHT22;64374;51.482;7.408;2023-07-08T13:08:39;34.00;66.20
4356;DHT22;64374;51.482;7.408;2023-07-08T13:11:08;34.10;65.30
4356;DHT22;64374;51.482;7.408;2023-07-08T13:13:49;34.10;64.60
4356;DHT22;64374;51.482;7.408;2023-07-08T13:16:31;34.10;65.00
4356;DHT22;64374;51.482;7.408;2023-07-08T13:19:01;34.00;63.40
4356;DHT22;64374;51.482;7.408;2023-07-08T13:21:31;34.00;65.00
4356;DHT22;64374;51.482;7.408;2023-07-08T13:24:07;34.20;66.80
4356;DHT22;64374;51.482;7.408;2023-07-08T13:26:35;34.20;65.90
4356;DHT22;64374;51.482;7.408;2023-07-08T13:29:11;34.40;66.20
4356;DHT22;64374;51.482;7.408;2023-07-08T13:31:47;34.50;64.20
4356;DHT22;64374;51.482;7.408;2023-07-08T13:34:19;34.60;63.40
4356;DHT22;64374;51.482;7.408;2023-07-08T13:36:51;34.60;63.70
4356;DHT22;64374;51.482;7.408;2023-07-08T13:39:24;34.50;63.30
4356;DHT22;64374;51.482;7.408;2023-07-08T13:41:56;34.60;63.80
4356;DHT22;64374;51.482;7.408;2023-07-08T13:44:27;34.60;64.20
4356;DHT22;64374;51.482;7.408;2023-07-08T13:46:57;34.50;63.50
4356;DHT22;64374;51.482;7.408;2023-07-08T13:49:30;34.40;62.80
4356;DHT22;64374;51.482;7.408;2023-07-08T13:52:28;34.50;62.40
4356;DHT22;64374;51.482;7.408;2023-07-08T13:55:01;34.60;63.20
4356;DHT22;64374;51.482;7.408;2023-07-08T13:57:33;34.80;63.10
4356;DHT22;64374;51.482;7.408;2023-07-08T14:00:03;34.90;63.30
4356;DHT22;64374;51.482;7.408;2023-07-08T14:02:39;34.90;63.10
4356;DHT22;64374;51.482;7.408;2023-07-08T14:05:12;34.90;65.00
4356;DHT22;64374;51.482;7.408;2023-07-08T14:07:42;35.00;64.10
4356;DHT22;64374;51.482;7.408;2023-07-08T14:10:13;34.90;64.70
4356;DHT22;64374;51.482;7.408;2023-07-08T14:12:42;35.00;63.10
4356;DHT22;64374;51.482;7.408;2023-07-08T14:15:10;35.00;64.10
4356;DHT22;64374;51.482;7.408;2023-07-08T14:17:38;35.20;63.20
4356;DHT22;64374;51.482;7.408;2023-07-08T14:20:14;35.30;62.20
4356;DHT22;64374;51.482;7.408;2023-07-08T14:22:43;35.20;62.40
4356;DHT22;64374;51.482;7.408;2023-07-08T14:25:16;35.30;62.10
4356;DHT22;64374;51.482;7.408;2023-07-08T14:27:48;35.30;64.10
4356;DHT22;64374;51.482;7.408;2023-07-08T14:30:17;35.20;65.00
4356;DHT22;64374;51.482;7.408;2023-07-08T14:33:10;35.30;64.30
4356;DHT22;64374;51.482;7.408;2023-07-08T14:35:41;35.20;63.00
4356;DHT22;64374;51.482;7.408;2023-07-08T14:38:11;34.80;63.50
4356;DHT22;64374;51.482;7.408;2023-07-08T14:40:53;34.90;63.10
4356;DHT22;64374;51.482;7.408;2023-07-08T14:43:27;34.90;64.80
4356;DHT22;64374;51.482;7.408;2023-07-08T14:45:58;34.90;66.10
4356;DHT22;64374;51.482;7.408;2023-07-08T14:48:28;34.70;65.70
4356;DHT22;64374;51.482;7.408;2023-07-08T14:50:57;34.70;64.90
4356;DHT22;64374;51.482;7.408;2023-07-08T14:53:26;34.80;64.50
4356;DHT22;64374;51.482;7.408;2023-07-08T14:55:57;34.90;64.50
4356;DHT22;64374;51.482;7.408;2023-07-08T14:58:28;34.80;63.80
4356;DHT22;64374;51.482;7.408;2023-07-08T15:01:00;34.90;62.70
4356;DHT22;64374;51.482;7.408;2023-07-08T15:03:33;34.80;62.50
4356;DHT22;64374;51.482;7.408;2023-07-08T15:06:02;34.90;63.00
4356;DHT22;64374;51.482;7.408;2023-07-08T15:08:30;35.00;62.20
4356;DHT22;64374;51.482;7.408;2023-07-08T15:11:04;35.10;62.70
4356;DHT22;64374;51.482;7.408;2023-07-08T15:13:35;35.10;61.20
4356;DHT22;64374;51.482;7.408;2023-07-08T15:16:05;35.20;62.50
4356;DHT22;64374;51.482;7.408;2023-07-08T15:18:34;35.10;63.40
4356;DHT22;64374;51.482;7.408;2023-07-08T15:21:04;35.00;64.10
4356;DHT22;64374;51.482;7.408;2023-07-08T15:23:32;35.00;63.50
4356;DHT22;64374;51.482;7.408;2023-07-08T15:26:00;35.10;63.30
4356;DHT22;64374;51.482;7.408;2023-07-08T15:28:40;35.10;64.00
4356;DHT22;64374;51.482;7.408;2023-07-08T15:31:16;35.00;65.20
4356;DHT22;64374;51.482;7.408;2023-07-08T15:33:46;34.70;65.00
4356;DHT22;64374;51.482;7.408;2023-07-08T15:36:14;34.70;65.00
4356;DHT22;64374;51.482;7.408;2023-07-08T15:38:43;34.70;64.40
4356;DHT22;64374;51.482;7.408;2023-07-08T15:41:18;34.70;63.50
4356;DHT22;64374;51.482;7.408;2023-07-08T15:43:49;34.70;63.30
4356;DHT22;64374;51.482;7.408;2023-07-08T15:46:20;34.70;62.60
4356;DHT22;64374;51.482;7.408;2023-07-08T15:48:52;34.70;63.60
4356;DHT22;64374;51.482;7.408;2023-07-08T15:51:23;34.70;64.30
4356;DHT22;64374;51.482;7.408;2023-07-08T15:53:52;34.60;64.10
4356;DHT22;64374;51.482;7.408;2023-07-08T15:56:20;34.40;64.00
4356;DHT22;64374;51.482;7.408;2023-07-08T15:58:51;34.40;64.60
4356;DHT22;64374;51.482;7.408;2023-07-08T16:01:21;34.40;64.50
4356;DHT22;64374;51.482;7.408;2023-07-08T16:03:51;34.40;65.00
4356;DHT22;64374;51.482;7.408;2023-07-08T16:06:21;34.30;63.30
4356;DHT22;64374;51.482;7.408;2023-07-08T16:08:49;34.10;64.20
4356;DHT22;64374;51.482;7.408;2023-07-08T16:11:29;34.10;64.30
4356;DHT22;64374;51.482;7.408;2023-07-08T16:14:09;34.00;64.50
4356;DHT22;64374;51.482;7.408;2023-07-08T16:16:39;34.00;65.40
4356;DHT22;64374;51.482;7.408;2023-07-08T16:19:09;34.00;65.90